sensor_id;sensor_type;location;lat;lon;timestamp;P1;durP1;ratioP1;P2;durP2;ratioP2
66669;SDS011;53568;52.164;4.472;2022-07-29T00:00:11;1.77;;;1.77;;
66669;SDS011;53568;52.164;4.472;2022-07-29T00:02:37;1.68;;;1.68;;
66669;SDS011;53568;52.164;4.472;2022-07-29T00:05:03;1.84;;;1.84;;
66669;SDS011;53568;52.164;4.472;2022-07-29T00:07:30;1.98;;;1.98;;
66669;SDS011;53568;52.164;4.472;2022-07-29T00:09:56;1.82;;;1.82;;
66669;SDS011;53568;52.164;4.472;2022-07-29T00:12:22;1.81;;;1.81;;
66669;SDS011;53568;52.164;4.472;2022-07-29T00:14:50;1.82;;;1.82;;
66669;SDS011;53568;52.164;4.472;2022-07-29T00:17:16;1.92;;;1.92;;
66669;SDS011;53568;52.164;4.472;2022-07-29T00:19:41;1.93;;;1.93;;
66669;SDS011;53568;52.164;4.472;2022-07-29T00:22:07;2.08;;;2.08;;
66669;SDS011;53568;52.164;4.472;2022-07-29T00:24:32;2.04;;;2.04;;
66669;SDS011;53568;52.164;4.472;2022-07-29T00:26:58;1.85;;;1.85;;
66669;SDS011;53568;52.164;4.472;2022-07-29T00:29:24;1.92;;;1.92;;
66669;SDS011;53568;52.164;4.472;2022-07-29T00:31:49;1.91;;;1.91;;
66669;SDS011;53568;52.164;4.472;2022-07-29T00:34:15;1.82;;;1.82;;
66669;SDS011;53568;52.164;4.472;2022-07-29T00:36:59;1.90;;;1.90;;
66669;SDS011;53568;52.164;4.472;2022-07-29T00:39:25;2.22;;;2.22;;
66669;SDS011;53568;52.164;4.472;2022-07-29T00:41:51;2.20;;;2.20;;
66669;SDS011;53568;52.164;4.472;2022-07-29T00:44:16;2.15;;;2.15;;
66669;SDS011;53568;52.164;4.472;2022-07-29T00:46:41;2.14;;;2.14;;
66669;SDS011;53568;52.164;4.472;2022-07-29T00:49:07;2.12;;;2.12;;
66669;SDS011;53568;52.164;4.472;2022-07-29T00:51:36;2.07;;;2.07;;
66669;SDS011;53568;52.164;4.472;2022-07-29T00:54:04;2.13;;;2.13;;
66669;SDS011;53568;52.164;4.472;2022-07-29T00:56:30;1.93;;;1.93;;
66669;SDS011;53568;52.164;4.472;2022-07-29T00:58:57;1.90;;;1.90;;
66669;SDS011;53568;52.164;4.472;2022-07-29T01:01:24;2.05;;;2.05;;
66669;SDS011;53568;52.164;4.472;2022-07-29T01:03:50;2.10;;;2.10;;
66669;SDS011;53568;52.164;4.472;2022-07-29T01:06:17;1.93;;;1.93;;
66669;SDS011;53568;52.164;4.472;2022-07-29T01:08:44;2.06;;;2.06;;
66669;SDS011;53568;52.164;4.472;2022-07-29T01:11:12;2.06;;;2.05;;
66669;SDS011;53568;52.164;4.472;2022-07-29T01:13:40;1.91;;;1.91;;
66669;SDS011;53568;52.164;4.472;2022-07-29T01:16:10;1.91;;;1.91;;
66669;SDS011;53568;52.164;4.472;2022-07-29T01:18:44;1.97;;;1.97;;
66669;SDS011;53568;52.164;4.472;2022-07-29T01:21:16;1.98;;;1.98;;
66669;SDS011;53568;52.164;4.472;2022-07-29T01:26:54;1.86;;;1.86;;
66669;SDS011;53568;52.164;4.472;2022-07-29T01:29:27;1.85;;;1.85;;
66669;SDS011;53568;52.164;4.472;2022-07-29T01:37:24;1.96;;;1.96;;
66669;SDS011;53568;52.164;4.472;2022-07-29T01:39:54;1.95;;;1.95;;
66669;SDS011;53568;52.164;4.472;2022-07-29T01:47:23;2.12;;;2.12;;
66669;SDS011;53568;52.164;4.472;2022-07-29T01:50:05;1.89;;;1.89;;
66669;SDS011;53568;52.164;4.472;2022-07-29T01:52:43;1.90;;;1.90;;
66669;SDS011;53568;52.164;4.472;2022-07-29T01:55:15;2.15;;;2.15;;
66669;SDS011;53568;52.164;4.472;2022-07-29T01:57:47;2.09;;;2.09;;
66669;SDS011;53568;52.164;4.472;2022-07-29T02:00:14;1.99;;;1.99;;
66669;SDS011;53568;52.164;4.472;2022-07-29T02:02:41;1.94;;;1.94;;
66669;SDS011;53568;52.164;4.472;2022-07-29T02:05:10;2.03;;;2.03;;
66669;SDS011;53568;52.164;4.472;2022-07-29T02:07:40;1.89;;;1.89;;
66669;SDS011;53568;52.164;4.472;2022-07-29T02:10:09;1.77;;;1.77;;
66669;SDS011;53568;52.164;4.472;2022-07-29T02:12:37;2.02;;;2.02;;
66669;SDS011;53568;52.164;4.472;2022-07-29T02:15:06;1.95;;;1.95;;
66669;SDS011;53568;52.164;4.472;2022-07-29T02:17:41;2.12;;;2.12;;
66669;SDS011;53568;52.164;4.472;2022-07-29T02:20:11;1.98;;;1.98;;
66669;SDS011;53568;52.164;4.472;2022-07-29T02:22:38;1.99;;;1.99;;
66669;SDS011;53568;52.164;4.472;2022-07-29T02:25:09;2.20;;;2.20;;
66669;SDS011;53568;52.164;4.472;2022-07-29T02:27:37;2.36;;;2.36;;
66669;SDS011;53568;52.164;4.472;2022-07-29T02:30:05;2.18;;;2.18;;
66669;SDS011;53568;52.164;4.472;2022-07-29T02:32:34;2.31;;;2.31;;
66669;SDS011;53568;52.164;4.472;2022-07-29T02:35:03;2.39;;;2.39;;
66669;SDS011;53568;52.164;4.472;2022-07-29T02:37:30;2.42;;;2.42;;
66669;SDS011;53568;52.164;4.472;2022-07-29T02:39:56;2.57;;;2.57;;
66669;SDS011;53568;52.164;4.472;2022-07-29T02:42:24;2.41;;;2.41;;
66669;SDS011;53568;52.164;4.472;2022-07-29T02:44:52;2.34;;;2.34;;
66669;SDS011;53568;52.164;4.472;2022-07-29T02:47:23;2.28;;;2.28;;
66669;SDS011;53568;52.164;4.472;2022-07-29T02:50:15;2.47;;;2.47;;
66669;SDS011;53568;52.164;4.472;2022-07-29T02:52:58;2.36;;;2.36;;
66669;SDS011;53568;52.164;4.472;2022-07-29T02:55:34;2.38;;;2.38;;
66669;SDS011;53568;52.164;4.472;2022-07-29T02:58:06;2.39;;;2.39;;
66669;SDS011;53568;52.164;4.472;2022-07-29T03:00:40;2.61;;;2.61;;
66669;SDS011;53568;52.164;4.472;2022-07-29T03:03:08;2.70;;;2.70;;
66669;SDS011;53568;52.164;4.472;2022-07-29T03:05:40;2.66;;;2.66;;
66669;SDS011;53568;52.164;4.472;2022-07-29T03:08:06;2.57;;;2.57;;
66669;SDS011;53568;52.164;4.472;2022-07-29T03:10:35;2.75;;;2.75;;
66669;SDS011;53568;52.164;4.472;2022-07-29T03:13:04;2.69;;;2.69;;
66669;SDS011;53568;52.164;4.472;2022-07-29T03:15:30;2.65;;;2.65;;
66669;SDS011;53568;52.164;4.472;2022-07-29T03:17:57;2.82;;;2.82;;
66669;SDS011;53568;52.164;4.472;2022-07-29T03:20:24;2.66;;;2.66;;
66669;SDS011;53568;52.164;4.472;2022-07-29T03:22:50;2.85;;;2.85;;
66669;SDS011;53568;52.164;4.472;2022-07-29T03:25:18;2.84;;;2.84;;
66669;SDS011;53568;52.164;4.472;2022-07-29T03:27:45;2.96;;;2.96;;
66669;SDS011;53568;52.164;4.472;2022-07-29T03:30:11;2.89;;;2.89;;
66669;SDS011;53568;52.164;4.472;2022-07-29T03:32:38;2.81;;;2.81;;
66669;SDS011;53568;52.164;4.472;2022-07-29T03:35:05;3.17;;;3.17;;
66669;SDS011;53568;52.164;4.472;2022-07-29T03:37:32;3.26;;;3.26;;
66669;SDS011;53568;52.164;4.472;2022-07-29T03:39:58;3.22;;;3.22;;
66669;SDS011;53568;52.164;4.472;2022-07-29T03:42:25;3.26;;;3.26;;
66669;SDS011;53568;52.164;4.472;2022-07-29T03:44:55;3.29;;;3.29;;
66669;SDS011;53568;52.164;4.472;2022-07-29T03:47:25;3.28;;;3.28;;
66669;SDS011;53568;52.164;4.472;2022-07-29T03:49:54;3.10;;;3.10;;
66669;SDS011;53568;52.164;4.472;2022-07-29T03:52:24;3.25;;;3.25;;
66669;SDS011;53568;52.164;4.472;2022-07-29T03:54:50;3.18;;;3.18;;
66669;SDS011;53568;52.164;4.472;2022-07-29T03:57:17;3.30;;;3.30;;
66669;SDS011;53568;52.164;4.472;2022-07-29T03:59:48;3.49;;;3.49;;
66669;SDS011;53568;52.164;4.472;2022-07-29T04:02:16;3.47;;;3.47;;
66669;SDS011;53568;52.164;4.472;2022-07-29T04:04:42;3.22;;;3.22;;
66669;SDS011;53568;52.164;4.472;2022-07-29T04:07:11;3.25;;;3.25;;
66669;SDS011;53568;52.164;4.472;2022-07-29T04:09:40;3.61;;;3.61;;
66669;SDS011;53568;52.164;4.472;2022-07-29T04:12:05;3.53;;;3.53;;
66669;SDS011;53568;52.164;4.472;2022-07-29T04:14:32;3.27;;;3.27;;
66669;SDS011;53568;52.164;4.472;2022-07-29T04:17:03;3.25;;;3.25;;
66669;SDS011;53568;52.164;4.472;2022-07-29T04:19:29;3.23;;;3.23;;
66669;SDS011;53568;52.164;4.472;2022-07-29T04:21:56;3.18;;;3.18;;
66669;SDS011;53568;52.164;4.472;2022-07-29T04:24:22;3.36;;;3.36;;
66669;SDS011;53568;52.164;4.472;2022-07-29T04:26:48;3.16;;;3.16;;
66669;SDS011;53568;52.164;4.472;2022-07-29T04:29:14;3.16;;;3.16;;
66669;SDS011;53568;52.164;4.472;2022-07-29T04:31:43;3.16;;;3.16;;
66669;SDS011;53568;52.164;4.472;2022-07-29T04:34:09;3.09;;;3.09;;
66669;SDS011;53568;52.164;4.472;2022-07-29T04:36:35;3.44;;;3.44;;
66669;SDS011;53568;52.164;4.472;2022-07-29T04:39:01;3.44;;;3.44;;
66669;SDS011;53568;52.164;4.472;2022-07-29T04:41:27;3.25;;;3.25;;
66669;SDS011;53568;52.164;4.472;2022-07-29T04:43:53;3.21;;;3.21;;
66669;SDS011;53568;52.164;4.472;2022-07-29T04:46:20;3.09;;;3.09;;
66669;SDS011;53568;52.164;4.472;2022-07-29T04:48:46;3.11;;;3.11;;
66669;SDS011;53568;52.164;4.472;2022-07-29T04:51:12;2.97;;;2.97;;
66669;SDS011;53568;52.164;4.472;2022-07-29T04:53:38;2.84;;;2.84;;
66669;SDS011;53568;52.164;4.472;2022-07-29T04:56:04;3.03;;;3.03;;
66669;SDS011;53568;52.164;4.472;2022-07-29T04:58:29;2.97;;;2.97;;
66669;SDS011;53568;52.164;4.472;2022-07-29T05:00:55;3.02;;;3.02;;
66669;SDS011;53568;52.164;4.472;2022-07-29T05:03:20;3.16;;;3.16;;
66669;SDS011;53568;52.164;4.472;2022-07-29T05:05:46;3.07;;;3.07;;
66669;SDS011;53568;52.164;4.472;2022-07-29T05:08:11;2.89;;;2.89;;
66669;SDS011;53568;52.164;4.472;2022-07-29T05:10:37;2.85;;;2.85;;
66669;SDS011;53568;52.164;4.472;2022-07-29T05:13:04;2.98;;;2.98;;
66669;SDS011;53568;52.164;4.472;2022-07-29T05:15:33;2.75;;;2.75;;
66669;SDS011;53568;52.164;4.472;2022-07-29T05:17:59;2.93;;;2.93;;
66669;SDS011;53568;52.164;4.472;2022-07-29T05:20:25;2.88;;;2.88;;
66669;SDS011;53568;52.164;4.472;2022-07-29T05:22:56;2.81;;;2.81;;
66669;SDS011;53568;52.164;4.472;2022-07-29T05:25:23;2.71;;;2.71;;
66669;SDS011;53568;52.164;4.472;2022-07-29T05:27:49;2.75;;;2.75;;
66669;SDS011;53568;52.164;4.472;2022-07-29T05:30:15;2.74;;;2.74;;
66669;SDS011;53568;52.164;4.472;2022-07-29T05:32:40;2.74;;;2.74;;
66669;SDS011;53568;52.164;4.472;2022-07-29T05:35:06;2.72;;;2.72;;
66669;SDS011;53568;52.164;4.472;2022-07-29T05:37:32;2.95;;;2.95;;
66669;SDS011;53568;52.164;4.472;2022-07-29T05:39:58;2.82;;;2.82;;
66669;SDS011;53568;52.164;4.472;2022-07-29T05:42:24;2.89;;;2.89;;
66669;SDS011;53568;52.164;4.472;2022-07-29T05:44:50;2.86;;;2.86;;
66669;SDS011;53568;52.164;4.472;2022-07-29T05:47:17;2.89;;;2.89;;
66669;SDS011;53568;52.164;4.472;2022-07-29T05:49:43;2.90;;;2.90;;
66669;SDS011;53568;52.164;4.472;2022-07-29T05:52:08;3.06;;;3.06;;
66669;SDS011;53568;52.164;4.472;2022-07-29T05:54:34;3.18;;;3.18;;
66669;SDS011;53568;52.164;4.472;2022-07-29T05:57:00;2.85;;;2.85;;
66669;SDS011;53568;52.164;4.472;2022-07-29T05:59:25;2.84;;;2.84;;
66669;SDS011;53568;52.164;4.472;2022-07-29T06:01:51;2.81;;;2.81;;
66669;SDS011;53568;52.164;4.472;2022-07-29T06:04:17;2.84;;;2.84;;
66669;SDS011;53568;52.164;4.472;2022-07-29T06:06:42;2.76;;;2.76;;
66669;SDS011;53568;52.164;4.472;2022-07-29T06:09:08;3.19;;;3.19;;
66669;SDS011;53568;52.164;4.472;2022-07-29T06:11:33;3.16;;;3.16;;
66669;SDS011;53568;52.164;4.472;2022-07-29T06:13:59;3.00;;;3.00;;
66669;SDS011;53568;52.164;4.472;2022-07-29T06:16:24;3.10;;;3.10;;
66669;SDS011;53568;52.164;4.472;2022-07-29T06:18:49;3.30;;;3.30;;
66669;SDS011;53568;52.164;4.472;2022-07-29T06:21:15;3.49;;;3.49;;
66669;SDS011;53568;52.164;4.472;2022-07-29T06:23:40;3.51;;;3.51;;
66669;SDS011;53568;52.164;4.472;2022-07-29T06:26:06;3.53;;;3.53;;
66669;SDS011;53568;52.164;4.472;2022-07-29T06:28:32;3.41;;;3.41;;
66669;SDS011;53568;52.164;4.472;2022-07-29T06:30:58;3.46;;;3.46;;
66669;SDS011;53568;52.164;4.472;2022-07-29T06:33:24;3.36;;;3.36;;
66669;SDS011;53568;52.164;4.472;2022-07-29T06:35:50;3.45;;;3.45;;
66669;SDS011;53568;52.164;4.472;2022-07-29T06:38:15;3.33;;;3.33;;
66669;SDS011;53568;52.164;4.472;2022-07-29T06:40:44;3.29;;;3.29;;
66669;SDS011;53568;52.164;4.472;2022-07-29T06:43:33;3.36;;;3.36;;
66669;SDS011;53568;52.164;4.472;2022-07-29T06:46:03;3.37;;;3.37;;
66669;SDS011;53568;52.164;4.472;2022-07-29T06:48:31;3.43;;;3.43;;
66669;SDS011;53568;52.164;4.472;2022-07-29T06:50:58;3.62;;;3.62;;
66669;SDS011;53568;52.164;4.472;2022-07-29T06:53:24;3.59;;;3.59;;
66669;SDS011;53568;52.164;4.472;2022-07-29T06:55:50;3.76;;;3.76;;
66669;SDS011;53568;52.164;4.472;2022-07-29T06:58:15;3.55;;;3.55;;
66669;SDS011;53568;52.164;4.472;2022-07-29T07:00:43;3.56;;;3.56;;
66669;SDS011;53568;52.164;4.472;2022-07-29T07:03:10;3.50;;;3.50;;
66669;SDS011;53568;52.164;4.472;2022-07-29T07:05:36;3.67;;;3.67;;
66669;SDS011;53568;52.164;4.472;2022-07-29T07:08:01;3.50;;;3.50;;
66669;SDS011;53568;52.164;4.472;2022-07-29T07:10:27;3.74;;;3.74;;
66669;SDS011;53568;52.164;4.472;2022-07-29T07:12:53;3.96;;;3.96;;
66669;SDS011;53568;52.164;4.472;2022-07-29T07:15:28;3.76;;;3.76;;
66669;SDS011;53568;52.164;4.472;2022-07-29T07:17:54;3.98;;;3.98;;
66669;SDS011;53568;52.164;4.472;2022-07-29T07:20:19;3.90;;;3.90;;
66669;SDS011;53568;52.164;4.472;2022-07-29T07:22:45;3.97;;;3.97;;
66669;SDS011;53568;52.164;4.472;2022-07-29T07:25:11;4.07;;;4.07;;
66669;SDS011;53568;52.164;4.472;2022-07-29T07:27:37;3.86;;;3.86;;
66669;SDS011;53568;52.164;4.472;2022-07-29T07:30:04;4.01;;;4.01;;
66669;SDS011;53568;52.164;4.472;2022-07-29T07:32:34;4.17;;;4.17;;
66669;SDS011;53568;52.164;4.472;2022-07-29T07:35:00;3.85;;;3.85;;
66669;SDS011;53568;52.164;4.472;2022-07-29T07:37:26;4.15;;;4.15;;
66669;SDS011;53568;52.164;4.472;2022-07-29T07:39:51;3.86;;;3.86;;
66669;SDS011;53568;52.164;4.472;2022-07-29T07:42:18;3.83;;;3.83;;
66669;SDS011;53568;52.164;4.472;2022-07-29T07:44:44;3.81;;;3.81;;
66669;SDS011;53568;52.164;4.472;2022-07-29T07:47:13;4.41;;;4.41;;
66669;SDS011;53568;52.164;4.472;2022-07-29T07:49:40;4.31;;;4.31;;
66669;SDS011;53568;52.164;4.472;2022-07-29T07:52:06;4.13;;;4.13;;
66669;SDS011;53568;52.164;4.472;2022-07-29T07:54:31;4.21;;;4.21;;
66669;SDS011;53568;52.164;4.472;2022-07-29T07:56:57;4.18;;;4.18;;
66669;SDS011;53568;52.164;4.472;2022-07-29T07:59:22;4.59;;;4.59;;
66669;SDS011;53568;52.164;4.472;2022-07-29T08:01:48;4.36;;;4.36;;
66669;SDS011;53568;52.164;4.472;2022-07-29T08:04:14;4.47;;;4.47;;
66669;SDS011;53568;52.164;4.472;2022-07-29T08:06:40;4.44;;;4.44;;
66669;SDS011;53568;52.164;4.472;2022-07-29T08:09:05;4.91;;;4.91;;
66669;SDS011;53568;52.164;4.472;2022-07-29T08:11:31;4.94;;;4.94;;
66669;SDS011;53568;52.164;4.472;2022-07-29T08:13:57;4.97;;;4.97;;
66669;SDS011;53568;52.164;4.472;2022-07-29T08:16:23;5.00;;;5.00;;
66669;SDS011;53568;52.164;4.472;2022-07-29T08:18:50;4.80;;;4.80;;
66669;SDS011;53568;52.164;4.472;2022-07-29T08:21:17;4.68;;;4.68;;
66669;SDS011;53568;52.164;4.472;2022-07-29T08:23:43;4.76;;;4.76;;
66669;SDS011;53568;52.164;4.472;2022-07-29T08:26:18;4.24;;;4.24;;
66669;SDS011;53568;52.164;4.472;2022-07-29T08:28:46;5.67;;;5.67;;
66669;SDS011;53568;52.164;4.472;2022-07-29T08:31:14;4.56;;;4.56;;
66669;SDS011;53568;52.164;4.472;2022-07-29T08:33:41;4.78;;;4.78;;
66669;SDS011;53568;52.164;4.472;2022-07-29T08:36:07;5.18;;;5.18;;
66669;SDS011;53568;52.164;4.472;2022-07-29T08:38:33;4.51;;;4.51;;
66669;SDS011;53568;52.164;4.472;2022-07-29T08:41:02;4.32;;;4.32;;
66669;SDS011;53568;52.164;4.472;2022-07-29T08:43:28;4.19;;;4.19;;
66669;SDS011;53568;52.164;4.472;2022-07-29T08:45:54;3.84;;;3.84;;
66669;SDS011;53568;52.164;4.472;2022-07-29T08:48:22;4.26;;;4.26;;
66669;SDS011;53568;52.164;4.472;2022-07-29T08:50:52;3.97;;;3.97;;
66669;SDS011;53568;52.164;4.472;2022-07-29T08:53:24;4.25;;;4.25;;
66669;SDS011;53568;52.164;4.472;2022-07-29T08:55:52;3.81;;;3.81;;
66669;SDS011;53568;52.164;4.472;2022-07-29T08:58:23;3.85;;;3.85;;
66669;SDS011;53568;52.164;4.472;2022-07-29T09:00:52;3.62;;;3.62;;
66669;SDS011;53568;52.164;4.472;2022-07-29T09:03:25;3.68;;;3.68;;
66669;SDS011;53568;52.164;4.472;2022-07-29T09:05:57;3.49;;;3.49;;
66669;SDS011;53568;52.164;4.472;2022-07-29T09:08:24;3.82;;;3.82;;
66669;SDS011;53568;52.164;4.472;2022-07-29T09:10:50;3.86;;;3.86;;
66669;SDS011;53568;52.164;4.472;2022-07-29T09:13:16;3.43;;;3.43;;
66669;SDS011;53568;52.164;4.472;2022-07-29T09:15:43;3.37;;;3.37;;
66669;SDS011;53568;52.164;4.472;2022-07-29T09:18:10;3.61;;;3.61;;
66669;SDS011;53568;52.164;4.472;2022-07-29T09:20:35;3.65;;;3.65;;
66669;SDS011;53568;52.164;4.472;2022-07-29T09:23:19;3.28;;;3.28;;
66669;SDS011;53568;52.164;4.472;2022-07-29T09:25:45;3.23;;;3.23;;
66669;SDS011;53568;52.164;4.472;2022-07-29T09:28:15;3.73;;;3.73;;
66669;SDS011;53568;52.164;4.472;2022-07-29T09:30:51;3.72;;;3.72;;
66669;SDS011;53568;52.164;4.472;2022-07-29T09:33:19;3.44;;;3.44;;
66669;SDS011;53568;52.164;4.472;2022-07-29T09:35:46;3.24;;;3.24;;
66669;SDS011;53568;52.164;4.472;2022-07-29T09:38:25;3.60;;;3.60;;
66669;SDS011;53568;52.164;4.472;2022-07-29T09:40:58;3.34;;;3.34;;
66669;SDS011;53568;52.164;4.472;2022-07-29T09:43:29;3.78;;;3.78;;
66669;SDS011;53568;52.164;4.472;2022-07-29T09:46:11;3.65;;;3.65;;
66669;SDS011;53568;52.164;4.472;2022-07-29T09:48:40;3.52;;;3.52;;
66669;SDS011;53568;52.164;4.472;2022-07-29T09:51:18;3.97;;;3.97;;
66669;SDS011;53568;52.164;4.472;2022-07-29T09:54:07;3.73;;;3.73;;
66669;SDS011;53568;52.164;4.472;2022-07-29T09:57:02;3.63;;;3.63;;
66669;SDS011;53568;52.164;4.472;2022-07-29T09:59:47;3.38;;;3.38;;
66669;SDS011;53568;52.164;4.472;2022-07-29T10:02:34;3.65;;;3.65;;
66669;SDS011;53568;52.164;4.472;2022-07-29T10:05:26;3.63;;;3.63;;
66669;SDS011;53568;52.164;4.472;2022-07-29T10:08:24;3.57;;;3.57;;
66669;SDS011;53568;52.164;4.472;2022-07-29T10:14:21;3.57;;;3.57;;
66669;SDS011;53568;52.164;4.472;2022-07-29T10:16:49;3.46;;;3.46;;
66669;SDS011;53568;52.164;4.472;2022-07-29T10:19:15;3.84;;;3.84;;
66669;SDS011;53568;52.164;4.472;2022-07-29T10:21:49;3.54;;;3.54;;
66669;SDS011;53568;52.164;4.472;2022-07-29T10:24:18;3.21;;;3.21;;
66669;SDS011;53568;52.164;4.472;2022-07-29T10:26:44;3.32;;;3.32;;
66669;SDS011;53568;52.164;4.472;2022-07-29T10:29:20;3.39;;;3.39;;
66669;SDS011;53568;52.164;4.472;2022-07-29T10:46:44;3.67;;;3.67;;
66669;SDS011;53568;52.164;4.472;2022-07-29T10:49:26;3.76;;;3.76;;
66669;SDS011;53568;52.164;4.472;2022-07-29T11:02:51;3.11;;;3.11;;
66669;SDS011;53568;52.164;4.472;2022-07-29T11:05:21;3.00;;;3.00;;
66669;SDS011;53568;52.164;4.472;2022-07-29T11:10:51;3.05;;;3.05;;
66669;SDS011;53568;52.164;4.472;2022-07-29T11:13:51;3.51;;;3.51;;
66669;SDS011;53568;52.164;4.472;2022-07-29T11:16:20;3.80;;;3.80;;
66669;SDS011;53568;52.164;4.472;2022-07-29T11:21:45;3.07;;;3.07;;
66669;SDS011;53568;52.164;4.472;2022-07-29T11:24:20;2.92;;;2.92;;
66669;SDS011;53568;52.164;4.472;2022-07-29T11:29:58;2.84;;;2.84;;
66669;SDS011;53568;52.164;4.472;2022-07-29T11:32:37;3.04;;;3.04;;
66669;SDS011;53568;52.164;4.472;2022-07-29T11:35:22;2.76;;;2.76;;
66669;SDS011;53568;52.164;4.472;2022-07-29T11:49:06;3.54;;;3.54;;
66669;SDS011;53568;52.164;4.472;2022-07-29T11:51:36;3.62;;;3.62;;
66669;SDS011;53568;52.164;4.472;2022-07-29T11:54:03;3.27;;;3.27;;
66669;SDS011;53568;52.164;4.472;2022-07-29T11:56:36;3.71;;;3.71;;
66669;SDS011;53568;52.164;4.472;2022-07-29T11:59:20;3.79;;;3.79;;
66669;SDS011;53568;52.164;4.472;2022-07-29T12:01:58;4.01;;;4.01;;
66669;SDS011;53568;52.164;4.472;2022-07-29T12:04:27;3.68;;;3.68;;
66669;SDS011;53568;52.164;4.472;2022-07-29T12:07:05;3.68;;;3.68;;
66669;SDS011;53568;52.164;4.472;2022-07-29T12:09:31;3.34;;;3.34;;
66669;SDS011;53568;52.164;4.472;2022-07-29T12:15:16;3.86;;;3.86;;
66669;SDS011;53568;52.164;4.472;2022-07-29T12:17:51;3.46;;;3.46;;
66669;SDS011;53568;52.164;4.472;2022-07-29T12:21:06;3.41;;;3.41;;
66669;SDS011;53568;52.164;4.472;2022-07-29T12:23:38;3.08;;;3.08;;
66669;SDS011;53568;52.164;4.472;2022-07-29T12:28:58;3.46;;;3.46;;
66669;SDS011;53568;52.164;4.472;2022-07-29T12:31:37;3.62;;;3.62;;
66669;SDS011;53568;52.164;4.472;2022-07-29T12:34:08;3.78;;;3.78;;
66669;SDS011;53568;52.164;4.472;2022-07-29T12:36:40;3.57;;;3.57;;
66669;SDS011;53568;52.164;4.472;2022-07-29T12:39:11;3.49;;;3.49;;
66669;SDS011;53568;52.164;4.472;2022-07-29T12:41:43;3.92;;;3.92;;
66669;SDS011;53568;52.164;4.472;2022-07-29T12:44:10;3.83;;;3.83;;
66669;SDS011;53568;52.164;4.472;2022-07-29T12:46:36;3.57;;;3.57;;
66669;SDS011;53568;52.164;4.472;2022-07-29T12:49:02;3.80;;;3.80;;
66669;SDS011;53568;52.164;4.472;2022-07-29T12:51:38;3.79;;;3.79;;
66669;SDS011;53568;52.164;4.472;2022-07-29T12:54:23;3.90;;;3.90;;
66669;SDS011;53568;52.164;4.472;2022-07-29T12:56:59;4.01;;;4.01;;
66669;SDS011;53568;52.164;4.472;2022-07-29T12:59:35;4.02;;;4.02;;
66669;SDS011;53568;52.164;4.472;2022-07-29T13:02:01;3.76;;;3.76;;
66669;SDS011;53568;52.164;4.472;2022-07-29T13:04:29;3.61;;;3.61;;
66669;SDS011;53568;52.164;4.472;2022-07-29T13:07:01;3.77;;;3.77;;
66669;SDS011;53568;52.164;4.472;2022-07-29T13:09:43;3.30;;;3.30;;
66669;SDS011;53568;52.164;4.472;2022-07-29T13:12:13;3.10;;;3.10;;
66669;SDS011;53568;52.164;4.472;2022-07-29T13:17:24;3.46;;;3.46;;
66669;SDS011;53568;52.164;4.472;2022-07-29T13:20:03;3.52;;;3.52;;
66669;SDS011;53568;52.164;4.472;2022-07-29T13:22:33;3.60;;;3.60;;
66669;SDS011;53568;52.164;4.472;2022-07-29T13:25:02;3.31;;;3.31;;
66669;SDS011;53568;52.164;4.472;2022-07-29T13:27:38;3.53;;;3.53;;
66669;SDS011;53568;52.164;4.472;2022-07-29T13:30:12;3.26;;;3.26;;
66669;SDS011;53568;52.164;4.472;2022-07-29T13:35:16;3.28;;;3.28;;
66669;SDS011;53568;52.164;4.472;2022-07-29T13:37:43;3.28;;;3.28;;
66669;SDS011;53568;52.164;4.472;2022-07-29T13:40:10;3.23;;;3.23;;
66669;SDS011;53568;52.164;4.472;2022-07-29T13:42:48;3.13;;;3.13;;
66669;SDS011;53568;52.164;4.472;2022-07-29T13:45:32;3.08;;;3.08;;
66669;SDS011;53568;52.164;4.472;2022-07-29T13:50:59;3.18;;;3.18;;
66669;SDS011;53568;52.164;4.472;2022-07-29T13:53:30;3.19;;;3.19;;
66669;SDS011;53568;52.164;4.472;2022-07-29T13:55:56;3.19;;;3.19;;
66669;SDS011;53568;52.164;4.472;2022-07-29T13:58:21;3.45;;;3.45;;
66669;SDS011;53568;52.164;4.472;2022-07-29T14:01:03;3.20;;;3.20;;
66669;SDS011;53568;52.164;4.472;2022-07-29T14:03:29;2.89;;;2.89;;
66669;SDS011;53568;52.164;4.472;2022-07-29T14:06:02;2.93;;;2.93;;
66669;SDS011;53568;52.164;4.472;2022-07-29T14:08:31;2.77;;;2.77;;
66669;SDS011;53568;52.164;4.472;2022-07-29T14:10:59;2.79;;;2.79;;
66669;SDS011;53568;52.164;4.472;2022-07-29T14:13:25;2.80;;;2.80;;
66669;SDS011;53568;52.164;4.472;2022-07-29T14:15:53;2.75;;;2.75;;
66669;SDS011;53568;52.164;4.472;2022-07-29T14:18:23;2.91;;;2.91;;
66669;SDS011;53568;52.164;4.472;2022-07-29T14:20:55;3.14;;;3.14;;
66669;SDS011;53568;52.164;4.472;2022-07-29T14:23:27;3.28;;;3.28;;
66669;SDS011;53568;52.164;4.472;2022-07-29T14:26:00;2.96;;;2.96;;
66669;SDS011;53568;52.164;4.472;2022-07-29T14:28:38;2.93;;;2.93;;
66669;SDS011;53568;52.164;4.472;2022-07-29T14:31:19;3.11;;;3.11;;
66669;SDS011;53568;52.164;4.472;2022-07-29T14:33:50;2.71;;;2.71;;
66669;SDS011;53568;52.164;4.472;2022-07-29T14:36:22;2.69;;;2.69;;
66669;SDS011;53568;52.164;4.472;2022-07-29T14:38:50;2.61;;;2.61;;
66669;SDS011;53568;52.164;4.472;2022-07-29T14:41:18;2.54;;;2.54;;
66669;SDS011;53568;52.164;4.472;2022-07-29T14:43:46;2.65;;;2.65;;
66669;SDS011;53568;52.164;4.472;2022-07-29T14:46:21;2.50;;;2.50;;
66669;SDS011;53568;52.164;4.472;2022-07-29T14:48:50;2.51;;;2.51;;
66669;SDS011;53568;52.164;4.472;2022-07-29T14:51:17;2.57;;;2.57;;
66669;SDS011;53568;52.164;4.472;2022-07-29T14:53:48;2.48;;;2.48;;
66669;SDS011;53568;52.164;4.472;2022-07-29T14:56:21;2.89;;;2.89;;
66669;SDS011;53568;52.164;4.472;2022-07-29T14:58:52;2.70;;;2.70;;
66669;SDS011;53568;52.164;4.472;2022-07-29T15:01:33;2.82;;;2.82;;
66669;SDS011;53568;52.164;4.472;2022-07-29T15:04:01;2.84;;;2.84;;
66669;SDS011;53568;52.164;4.472;2022-07-29T15:06:27;2.60;;;2.60;;
66669;SDS011;53568;52.164;4.472;2022-07-29T15:08:59;2.64;;;2.64;;
66669;SDS011;53568;52.164;4.472;2022-07-29T15:11:27;2.75;;;2.75;;
66669;SDS011;53568;52.164;4.472;2022-07-29T15:13:55;2.56;;;2.56;;
66669;SDS011;53568;52.164;4.472;2022-07-29T15:16:30;2.81;;;2.81;;
66669;SDS011;53568;52.164;4.472;2022-07-29T15:18:56;2.61;;;2.61;;
66669;SDS011;53568;52.164;4.472;2022-07-29T15:21:54;2.59;;;2.59;;
66669;SDS011;53568;52.164;4.472;2022-07-29T15:24:34;2.65;;;2.65;;
66669;SDS011;53568;52.164;4.472;2022-07-29T15:27:02;2.92;;;2.92;;
66669;SDS011;53568;52.164;4.472;2022-07-29T15:29:34;2.97;;;2.97;;
66669;SDS011;53568;52.164;4.472;2022-07-29T15:32:04;2.66;;;2.66;;
66669;SDS011;53568;52.164;4.472;2022-07-29T15:34:30;2.70;;;2.70;;
66669;SDS011;53568;52.164;4.472;2022-07-29T15:37:06;2.79;;;2.79;;
66669;SDS011;53568;52.164;4.472;2022-07-29T15:39:51;2.62;;;2.62;;
66669;SDS011;53568;52.164;4.472;2022-07-29T15:42:16;2.89;;;2.86;;
66669;SDS011;53568;52.164;4.472;2022-07-29T15:44:44;3.15;;;3.06;;
66669;SDS011;53568;52.164;4.472;2022-07-29T15:47:16;2.82;;;2.73;;
66669;SDS011;53568;52.164;4.472;2022-07-29T15:49:47;2.86;;;2.84;;
66669;SDS011;53568;52.164;4.472;2022-07-29T15:52:21;2.82;;;2.82;;
66669;SDS011;53568;52.164;4.472;2022-07-29T15:54:49;2.65;;;2.64;;
66669;SDS011;53568;52.164;4.472;2022-07-29T15:57:17;2.92;;;2.92;;
66669;SDS011;53568;52.164;4.472;2022-07-29T15:59:45;2.81;;;2.81;;
66669;SDS011;53568;52.164;4.472;2022-07-29T16:02:21;2.74;;;2.74;;
66669;SDS011;53568;52.164;4.472;2022-07-29T16:04:59;2.95;;;2.95;;
66669;SDS011;53568;52.164;4.472;2022-07-29T16:07:25;3.01;;;2.98;;
66669;SDS011;53568;52.164;4.472;2022-07-29T16:10:10;2.91;;;2.91;;
66669;SDS011;53568;52.164;4.472;2022-07-29T16:12:52;2.86;;;2.86;;
66669;SDS011;53568;52.164;4.472;2022-07-29T16:15:22;3.02;;;3.02;;
66669;SDS011;53568;52.164;4.472;2022-07-29T16:17:51;3.02;;;3.02;;
66669;SDS011;53568;52.164;4.472;2022-07-29T16:20:17;3.20;;;3.20;;